createdAt,value
2023-05-14T00:01:04.053Z,98641.00
2023-05-14T00:03:30.840Z,98646.00
2023-05-14T00:05:57.759Z,98640.00
2023-05-14T00:08:24.276Z,98644.00
2023-05-14T00:10:51.004Z,98637.00
2023-05-14T00:13:17.489Z,98642.00
2023-05-14T00:15:44.477Z,98643.00
2023-05-14T00:18:12.268Z,98638.00
2023-05-14T00:20:38.880Z,98641.00
2023-05-14T00:23:05.492Z,98635.00
2023-05-14T00:25:32.065Z,98639.00
2023-05-14T00:27:58.567Z,98627.00
2023-05-14T00:30:25.309Z,98632.00
2023-05-14T00:32:53.309Z,98632.00
2023-05-14T00:35:21.417Z,98635.00
2023-05-14T00:37:48.225Z,98626.00
2023-05-14T00:40:14.917Z,98619.00
2023-05-14T00:42:41.400Z,98623.00
2023-05-14T00:45:08.565Z,98620.00
2023-05-14T00:47:35.173Z,98622.00
2023-05-14T00:50:03.779Z,98624.00
2023-05-14T00:52:30.667Z,98619.00
2023-05-14T00:54:57.291Z,98619.00
2023-05-14T00:57:23.824Z,98629.00
2023-05-14T00:59:50.700Z,98620.00
2023-05-14T01:02:17.198Z,98633.00
2023-05-14T01:04:43.742Z,98614.00
2023-05-14T01:07:52.856Z,98623.00
2023-05-14T01:10:34.450Z,98620.00
2023-05-14T01:13:14.905Z,98619.00
2023-05-14T01:15:42.637Z,98616.00
2023-05-14T01:18:16.132Z,98615.00
2023-05-14T01:20:44.658Z,98617.00
2023-05-14T01:23:11.470Z,98614.00
2023-05-14T01:25:38.042Z,98609.00
2023-05-14T01:28:24.915Z,98609.00
2023-05-14T01:31:09.877Z,98609.00
2023-05-14T01:33:37.578Z,98606.00
2023-05-14T01:36:04.872Z,98606.00
2023-05-14T01:38:34.027Z,98601.00
2023-05-14T01:41:01.422Z,98591.00
2023-05-14T01:43:29.031Z,98605.00
2023-05-14T01:45:55.697Z,98599.00
2023-05-14T01:48:22.457Z,98601.00
2023-05-14T01:50:49.094Z,98602.00
2023-05-14T01:53:15.653Z,98603.00
2023-05-14T01:55:42.174Z,98611.00
2023-05-14T01:58:09.266Z,98603.00
2023-05-14T02:00:35.811Z,98595.00
2023-05-14T02:03:02.316Z,98599.00
2023-05-14T02:05:28.850Z,98600.00
2023-05-14T02:07:56.004Z,98598.00
2023-05-14T02:10:22.765Z,98592.00
2023-05-14T02:12:49.659Z,98593.00
2023-05-14T02:15:16.510Z,98596.00
2023-05-14T02:17:43.022Z,98592.00
2023-05-14T02:20:11.241Z,98580.00
2023-05-14T02:22:37.935Z,98592.00
2023-05-14T02:25:04.744Z,98590.00
2023-05-14T02:27:31.565Z,98588.00
2023-05-14T02:30:00.720Z,98576.00
2023-05-14T02:32:28.341Z,98578.00
2023-05-14T02:34:55.189Z,98583.00
2023-05-14T02:37:21.823Z,98573.00
2023-05-14T02:39:49.020Z,98573.00
2023-05-14T02:42:15.650Z,98578.00
2023-05-14T02:44:42.148Z,98580.00
2023-05-14T02:47:08.756Z,98577.00
2023-05-14T02:49:35.264Z,98580.00
2023-05-14T02:52:01.890Z,98574.00
2023-05-14T02:54:28.437Z,98563.00
2023-05-14T02:56:55.021Z,98569.00
2023-05-14T02:59:23.629Z,98563.00
2023-05-14T03:01:50.829Z,98563.00
2023-05-14T03:04:17.928Z,98564.00
2023-05-14T03:06:44.485Z,98562.00
2023-05-14T03:09:10.971Z,98550.00
2023-05-14T03:11:37.504Z,98559.00
2023-05-14T03:14:03.982Z,98554.00
2023-05-14T03:16:30.528Z,98564.00
2023-05-14T03:18:57.047Z,98548.00
2023-05-14T03:21:23.660Z,98559.00
2023-05-14T03:23:50.486Z,98563.00
2023-05-14T03:26:18.464Z,98559.00
2023-05-14T03:28:44.967Z,98559.00
2023-05-14T03:31:12.519Z,98555.00
2023-05-14T03:33:39.370Z,98559.00
2023-05-14T03:36:06.119Z,98567.00
2023-05-14T03:38:32.576Z,98569.00
2023-05-14T03:40:59.113Z,98566.00
2023-05-14T03:43:25.932Z,98566.00
2023-05-14T03:45:52.926Z,98560.00
2023-05-14T03:48:19.981Z,98563.00
2023-05-14T03:50:47.058Z,98560.00
2023-05-14T03:53:13.624Z,98555.00
2023-05-14T03:55:40.206Z,98566.00
2023-05-14T03:58:13.918Z,98564.00
2023-05-14T04:00:43.718Z,98565.00
2023-05-14T04:03:11.751Z,98559.00
2023-05-14T04:05:38.347Z,98558.00
2023-05-14T04:08:05.016Z,98555.00
2023-05-14T04:10:32.129Z,98551.00
2023-05-14T04:13:00.551Z,98560.00
2023-05-14T04:15:31.634Z,98556.00
2023-05-14T04:17:58.144Z,98553.00
2023-05-14T04:20:24.957Z,98545.00
2023-05-14T04:22:51.666Z,98554.00
2023-05-14T04:25:18.538Z,98551.00
2023-05-14T04:27:45.067Z,98554.00
2023-05-14T04:30:12.111Z,98545.00
2023-05-14T04:32:39.265Z,98554.00
2023-05-14T04:35:06.653Z,98554.00
2023-05-14T04:37:33.272Z,98558.00
2023-05-14T04:39:59.847Z,98558.00
2023-05-14T04:42:26.456Z,98552.00
2023-05-14T04:44:52.915Z,98552.00
2023-05-14T04:47:21.049Z,98563.00
2023-05-14T04:49:47.729Z,98563.00
2023-05-14T04:52:14.249Z,98567.00
2023-05-14T04:54:40.953Z,98558.00
2023-05-14T04:57:07.529Z,98560.00
2023-05-14T04:59:34.048Z,98558.00
2023-05-14T05:02:00.730Z,98568.00
2023-05-14T05:04:27.807Z,98568.00
2023-05-14T05:06:54.269Z,98569.00
2023-05-14T05:09:20.815Z,98560.00
2023-05-14T05:11:47.557Z,98562.00
2023-05-14T05:14:14.122Z,98574.00
2023-05-14T05:16:40.760Z,98572.00
2023-05-14T05:19:07.370Z,98568.00
2023-05-14T05:21:34.225Z,98568.00
2023-05-14T05:24:00.681Z,98566.00
2023-05-14T05:26:27.967Z,98567.00
2023-05-14T05:28:54.449Z,98564.00
2023-05-14T05:31:20.946Z,98570.00
2023-05-14T05:33:47.942Z,98571.00
2023-05-14T05:36:14.483Z,98574.00
2023-05-14T05:38:41.070Z,98565.00
2023-05-14T05:41:07.543Z,98554.00
2023-05-14T05:43:34.135Z,98568.00
2023-05-14T05:46:01.588Z,98566.00
2023-05-14T05:48:28.411Z,98571.00
2023-05-14T05:50:55.120Z,98576.00
2023-05-14T05:53:21.749Z,98577.00
2023-05-14T05:55:48.288Z,98575.00
2023-05-14T05:58:17.144Z,98568.00
2023-05-14T06:00:43.741Z,98570.00
2023-05-14T06:03:11.414Z,98576.00
2023-05-14T06:05:37.988Z,98578.00
2023-05-14T06:08:05.040Z,98575.00
2023-05-14T06:10:31.798Z,98576.00
2023-05-14T06:12:58.297Z,98578.00
2023-05-14T06:15:24.840Z,98580.00
2023-05-14T06:17:51.401Z,98584.00
2023-05-14T06:20:18.008Z,98575.00
2023-05-14T06:22:44.515Z,98580.00
2023-05-14T06:25:11.485Z,98574.00
2023-05-14T06:27:38.011Z,98586.00
2023-05-14T06:30:05.103Z,98586.00
2023-05-14T06:32:31.712Z,98583.00
2023-05-14T06:34:58.334Z,98583.00
2023-05-14T06:37:25.060Z,98580.00
2023-05-14T06:39:51.592Z,98572.00
2023-05-14T06:42:18.345Z,98580.00
2023-05-14T06:44:45.503Z,98581.00
2023-05-14T06:47:12.017Z,98584.00
2023-05-14T06:49:39.096Z,98579.00
2023-05-14T06:52:06.264Z,98584.00
2023-05-14T06:54:32.834Z,98576.00
2023-05-14T06:56:59.400Z,98578.00
2023-05-14T06:59:26.343Z,98580.00
2023-05-14T07:01:52.942Z,98580.00
2023-05-14T07:04:19.639Z,98578.00
2023-05-14T07:06:46.159Z,98575.00
2023-05-14T07:09:13.278Z,98580.00
2023-05-14T07:11:39.745Z,98585.00
2023-05-14T07:14:06.261Z,98578.00
2023-05-14T07:16:32.817Z,98569.00
2023-05-14T07:18:59.419Z,98571.00
2023-05-14T07:21:26.130Z,98575.00
2023-05-14T07:23:52.698Z,98575.00
2023-05-14T07:26:19.220Z,98569.00
2023-05-14T07:28:46.114Z,98569.00
2023-05-14T07:31:12.676Z,98567.00
2023-05-14T07:33:39.219Z,98564.00
2023-05-14T07:36:06.140Z,98566.00
2023-05-14T07:38:32.801Z,98569.00
2023-05-14T07:40:59.394Z,98565.00
2023-05-14T07:43:26.215Z,98563.00
2023-05-14T07:45:52.896Z,98565.00
2023-05-14T07:48:19.488Z,98563.00
2023-05-14T07:50:46.088Z,98557.00
2023-05-14T07:53:12.680Z,98550.00
2023-05-14T07:55:39.231Z,98546.00
2023-05-14T07:58:06.622Z,98541.00
2023-05-14T08:00:33.154Z,98537.00
2023-05-14T08:02:59.768Z,98547.00
2023-05-14T08:05:26.707Z,98543.00
2023-05-14T08:07:53.176Z,98545.00
2023-05-14T08:10:19.777Z,98546.00
2023-05-14T08:12:46.324Z,98541.00
2023-05-14T08:15:12.854Z,98535.00
2023-05-14T08:17:39.405Z,98543.00
2023-05-14T08:20:07.404Z,98539.00
2023-05-14T08:22:33.932Z,98537.00
2023-05-14T08:25:02.726Z,98540.00
2023-05-14T08:27:29.263Z,98544.00
2023-05-14T08:29:55.703Z,98543.00
2023-05-14T08:32:24.185Z,98531.00
2023-05-14T08:34:51.547Z,98531.00
2023-05-14T08:37:18.192Z,98527.00
2023-05-14T08:39:44.658Z,98527.00
2023-05-14T08:42:13.238Z,98523.00
2023-05-14T08:44:49.985Z,98535.00
2023-05-14T08:47:18.919Z,98519.00
2023-05-14T08:49:47.501Z,98520.00
2023-05-14T08:52:18.037Z,98517.00
2023-05-14T08:54:45.630Z,98513.00
2023-05-14T08:57:13.045Z,98516.00
2023-05-14T08:59:39.529Z,98507.00
2023-05-14T09:02:06.988Z,98512.00
2023-05-14T09:04:34.786Z,98502.00
2023-05-14T09:07:02.154Z,98500.00
2023-05-14T09:09:28.960Z,98510.00
2023-05-14T09:11:55.463Z,98510.00
2023-05-14T09:14:23.213Z,98495.00
2023-05-14T09:16:51.122Z,98492.00
2023-05-14T09:19:21.139Z,98496.00
2023-05-14T09:21:48.783Z,98498.00
2023-05-14T09:24:24.007Z,98501.00
2023-05-14T09:26:54.985Z,98499.00
2023-05-14T09:29:22.714Z,98497.00
2023-05-14T09:31:51.404Z,98485.00
2023-05-14T09:34:32.230Z,98497.00
2023-05-14T09:37:03.810Z,98487.00
2023-05-14T09:39:31.157Z,98495.00
2023-05-14T09:41:57.866Z,98486.00
2023-05-14T09:44:25.195Z,98500.00
2023-05-14T09:46:53.129Z,98507.00
2023-05-14T09:49:20.354Z,98499.00
2023-05-14T09:51:48.230Z,98506.00
2023-05-14T09:54:14.813Z,98501.00
2023-05-14T09:56:41.376Z,98504.00
2023-05-14T09:59:07.878Z,98501.00
2023-05-14T10:01:35.129Z,98498.00
2023-05-14T10:04:04.520Z,98506.00
2023-05-14T10:06:33.723Z,98505.00
2023-05-14T10:09:04.796Z,98499.00
2023-05-14T10:11:34.162Z,98500.00
2023-05-14T10:14:08.645Z,98502.00
2023-05-14T10:16:40.797Z,98503.00
2023-05-14T10:19:11.964Z,98491.00
2023-05-14T10:21:41.000Z,98501.00
2023-05-14T10:24:08.497Z,98493.00
2023-05-14T10:26:39.729Z,98492.00
2023-05-14T10:29:10.357Z,98492.00
2023-05-14T10:31:54.199Z,98495.00
2023-05-14T10:34:43.852Z,98484.00
2023-05-14T10:37:27.813Z,98489.00
2023-05-14T10:39:58.751Z,98481.00
2023-05-14T10:42:35.960Z,98483.00
2023-05-14T10:45:15.497Z,98485.00
2023-05-14T10:47:44.492Z,98490.00
2023-05-14T10:50:12.958Z,98487.00
2023-05-14T10:52:42.823Z,98481.00
2023-05-14T10:55:12.256Z,98476.00
2023-05-14T10:57:39.991Z,98474.00
2023-05-14T11:00:10.743Z,98483.00
2023-05-14T11:02:39.310Z,98481.00
2023-05-14T11:05:09.102Z,98475.00
2023-05-14T11:07:38.005Z,98466.00
2023-05-14T11:10:07.295Z,98467.00
2023-05-14T11:12:35.596Z,98470.00
2023-05-14T11:15:03.972Z,98473.00
2023-05-14T11:17:31.339Z,98469.00
2023-05-14T11:19:58.960Z,98478.00
2023-05-14T11:22:25.825Z,98482.00
2023-05-14T11:24:52.473Z,98475.00
2023-05-14T11:27:20.581Z,98475.00
2023-05-14T11:29:48.336Z,98470.00
2023-05-14T11:32:18.875Z,98478.00
2023-05-14T11:34:46.226Z,98473.00
2023-05-14T11:37:14.530Z,98460.00
2023-05-14T11:39:47.873Z,98462.00
2023-05-14T11:42:17.333Z,98466.00
2023-05-14T11:44:44.564Z,98458.00
2023-05-14T11:47:11.728Z,98459.00
2023-05-14T11:49:38.416Z,98458.00
2023-05-14T11:52:06.611Z,98450.00
2023-05-14T11:54:34.248Z,98448.00
2023-05-14T11:57:07.208Z,98445.00
2023-05-14T11:59:34.006Z,98448.00
2023-05-14T12:02:02.303Z,98434.00
2023-05-14T12:04:29.395Z,98437.00
2023-05-14T12:06:58.616Z,98453.00
2023-05-14T12:09:25.552Z,98442.00
2023-05-14T12:11:52.452Z,98448.00
2023-05-14T12:14:20.911Z,98434.00
2023-05-14T12:16:48.350Z,98428.00
2023-05-14T12:19:16.659Z,98430.00
2023-05-14T12:21:45.248Z,98421.00
2023-05-14T12:24:17.826Z,98426.00
2023-05-14T12:26:45.692Z,98419.00
2023-05-14T12:29:14.007Z,98412.00
2023-05-14T12:31:48.784Z,98420.00
2023-05-14T12:34:16.451Z,98420.00
2023-05-14T12:36:43.518Z,98415.00
2023-05-14T12:39:11.171Z,98407.00
2023-05-14T12:41:37.848Z,98402.00
2023-05-14T12:44:05.064Z,98417.00
2023-05-14T12:46:33.004Z,98409.00
2023-05-14T12:48:59.802Z,98399.00
2023-05-14T12:51:26.315Z,98401.00
2023-05-14T12:53:54.191Z,98392.00
2023-05-14T12:56:21.310Z,98393.00
2023-05-14T12:58:47.913Z,98382.00
2023-05-14T13:01:14.476Z,98386.00
2023-05-14T13:03:41.502Z,98382.00
2023-05-14T13:06:08.159Z,98381.00
2023-05-14T13:08:35.310Z,98380.00
2023-05-14T13:11:01.876Z,98375.00
2023-05-14T13:13:28.532Z,98378.00
2023-05-14T13:15:55.522Z,98364.00
2023-05-14T13:18:22.089Z,98364.00
2023-05-14T13:20:48.737Z,98372.00
2023-05-14T13:23:15.582Z,98369.00
2023-05-14T13:25:42.189Z,98371.00
2023-05-14T13:28:08.920Z,98360.00
2023-05-14T13:30:35.632Z,98357.00
2023-05-14T13:33:02.362Z,98355.00
2023-05-14T13:35:29.074Z,98356.00
2023-05-14T13:37:55.767Z,98357.00
2023-05-14T13:40:22.377Z,98357.00
2023-05-14T13:42:49.171Z,98345.00
2023-05-14T13:45:15.774Z,98350.00
2023-05-14T13:47:42.495Z,98349.00
2023-05-14T13:50:09.203Z,98335.00
2023-05-14T13:52:35.910Z,98344.00
2023-05-14T13:55:02.464Z,98340.00
2023-05-14T13:57:29.001Z,98348.00
2023-05-14T13:59:56.040Z,98335.00
2023-05-14T14:02:22.582Z,98328.00
2023-05-14T14:04:49.434Z,98323.00
2023-05-14T14:07:16.069Z,98322.00
2023-05-14T14:09:42.602Z,98321.00
2023-05-14T14:12:09.586Z,98335.00
2023-05-14T14:14:36.100Z,98324.00
2023-05-14T14:17:02.595Z,98314.00
2023-05-14T14:19:29.177Z,98323.00
2023-05-14T14:21:55.631Z,98315.00
2023-05-14T14:24:22.226Z,98319.00
2023-05-14T14:26:48.719Z,98305.00
2023-05-14T14:29:15.235Z,98299.00
2023-05-14T14:31:41.836Z,98305.00
2023-05-14T14:34:08.347Z,98312.00
2023-05-14T14:36:34.929Z,98312.00
2023-05-14T14:39:01.479Z,98303.00
2023-05-14T14:41:28.147Z,98310.00
2023-05-14T14:43:54.635Z,98315.00
2023-05-14T14:46:21.282Z,98305.00
2023-05-14T14:48:47.871Z,98300.00
2023-05-14T14:51:14.397Z,98296.00
2023-05-14T14:53:41.234Z,98294.00
2023-05-14T14:56:08.021Z,98297.00
2023-05-14T14:58:34.875Z,98292.00
2023-05-14T15:01:01.577Z,98295.00
2023-05-14T15:03:28.971Z,98287.00
2023-05-14T15:05:55.732Z,98282.00
2023-05-14T15:08:29.737Z,98274.00
2023-05-14T15:10:56.565Z,98271.00
2023-05-14T15:13:23.136Z,98264.00
2023-05-14T15:15:50.640Z,98266.00
2023-05-14T15:18:17.318Z,98269.00
2023-05-14T15:20:44.236Z,98266.00
2023-05-14T15:23:11.630Z,98265.00
2023-05-14T15:25:38.371Z,98262.00
2023-05-14T15:28:06.995Z,98263.00
2023-05-14T15:30:33.693Z,98256.00
2023-05-14T15:33:00.559Z,98270.00
2023-05-14T15:35:27.225Z,98257.00
2023-05-14T15:37:56.014Z,98270.00
2023-05-14T15:40:23.155Z,98270.00
2023-05-14T15:42:49.848Z,98279.00
2023-05-14T15:45:16.398Z,98278.00
2023-05-14T15:47:44.951Z,98269.00
2023-05-14T15:50:11.936Z,98280.00
2023-05-14T15:52:39.283Z,98274.00
2023-05-14T15:55:06.548Z,98278.00
2023-05-14T15:57:33.945Z,98272.00
2023-05-14T16:00:00.514Z,98271.00
2023-05-14T16:02:30.300Z,98284.00
2023-05-14T16:04:57.171Z,98274.00
2023-05-14T16:07:23.721Z,98267.00
2023-05-14T16:09:50.879Z,98265.00
2023-05-14T16:12:17.388Z,98256.00
2023-05-14T16:14:45.184Z,98264.00
2023-05-14T16:17:12.421Z,98260.00
2023-05-14T16:19:39.593Z,98271.00
2023-05-14T16:22:06.549Z,98267.00
2023-05-14T16:24:33.046Z,98271.00
2023-05-14T16:27:00.747Z,98267.00
2023-05-14T16:29:27.339Z,98264.00
2023-05-14T16:31:53.862Z,98259.00
2023-05-14T16:34:20.484Z,98249.00
2023-05-14T16:36:47.114Z,98262.00
2023-05-14T16:39:13.645Z,98257.00
2023-05-14T16:41:40.219Z,98251.00
2023-05-14T16:44:06.704Z,98251.00
2023-05-14T16:46:33.945Z,98253.00
2023-05-14T16:49:00.549Z,98270.00
2023-05-14T16:51:27.054Z,98258.00
2023-05-14T16:53:55.453Z,98255.00
2023-05-14T16:56:22.516Z,98249.00
2023-05-14T16:58:49.196Z,98270.00
2023-05-14T17:01:15.793Z,98271.00
2023-05-14T17:03:43.479Z,98274.00
2023-05-14T17:06:10.129Z,98268.00
2023-05-14T17:08:36.740Z,98279.00
2023-05-14T17:11:05.684Z,98274.00
2023-05-14T17:13:33.053Z,98274.00
2023-05-14T17:16:00.589Z,98290.00
2023-05-14T17:18:27.558Z,98290.00
2023-05-14T17:20:54.289Z,98284.00
2023-05-14T17:23:20.910Z,98285.00
2023-05-14T17:25:47.443Z,98291.00
2023-05-14T17:28:13.917Z,98295.00
2023-05-14T17:30:40.834Z,98299.00
2023-05-14T17:33:07.471Z,98288.00
2023-05-14T17:35:36.226Z,98299.00
2023-05-14T17:38:06.072Z,98294.00
2023-05-14T17:40:33.466Z,98296.00
2023-05-14T17:43:00.118Z,98301.00
2023-05-14T17:45:27.797Z,98301.00
2023-05-14T17:47:55.218Z,98300.00
2023-05-14T17:50:21.824Z,98304.00
2023-05-14T17:52:48.562Z,98309.00
2023-05-14T17:55:17.355Z,98306.00
2023-05-14T17:57:43.870Z,98313.00
2023-05-14T18:00:11.071Z,98323.00
2023-05-14T18:02:38.017Z,98328.00
2023-05-14T18:05:05.176Z,98328.00
2023-05-14T18:07:32.251Z,98333.00
2023-05-14T18:09:58.894Z,98331.00
2023-05-14T18:12:29.075Z,98329.00
2023-05-14T18:14:55.778Z,98324.00
2023-05-14T18:17:22.401Z,98329.00
2023-05-14T18:19:48.966Z,98333.00
2023-05-14T18:22:15.711Z,98335.00
2023-05-14T18:24:44.152Z,98337.00
2023-05-14T18:27:11.031Z,98336.00
2023-05-14T18:29:37.561Z,98335.00
2023-05-14T18:32:04.204Z,98335.00
2023-05-14T18:34:30.721Z,98337.00
2023-05-14T18:36:57.805Z,98346.00
2023-05-14T18:39:24.305Z,98337.00
2023-05-14T18:41:50.822Z,98332.00
2023-05-14T18:44:18.383Z,98336.00
2023-05-14T18:46:44.996Z,98328.00
2023-05-14T18:49:11.738Z,98334.00
2023-05-14T18:51:38.223Z,98336.00
2023-05-14T18:54:04.760Z,98340.00
2023-05-14T18:56:31.437Z,98348.00
2023-05-14T18:58:57.886Z,98348.00
2023-05-14T19:01:25.596Z,98351.00
2023-05-14T19:03:53.033Z,98352.00
2023-05-14T19:06:19.716Z,98354.00
2023-05-14T19:08:46.407Z,98352.00
2023-05-14T19:11:12.891Z,98350.00
2023-05-14T19:13:39.520Z,98362.00
2023-05-14T19:16:06.535Z,98362.00
2023-05-14T19:18:33.159Z,98358.00
2023-05-14T19:20:59.962Z,98363.00
2023-05-14T19:23:26.477Z,98358.00
2023-05-14T19:25:53.048Z,98364.00
2023-05-14T19:28:19.891Z,98358.00
2023-05-14T19:30:46.447Z,98359.00
2023-05-14T19:33:13.086Z,98359.00
2023-05-14T19:35:39.688Z,98362.00
2023-05-14T19:38:08.593Z,98364.00
2023-05-14T19:40:35.370Z,98363.00
2023-05-14T19:43:01.894Z,98374.00
2023-05-14T19:45:28.503Z,98365.00
2023-05-14T19:47:55.095Z,98364.00
2023-05-14T19:50:21.764Z,98360.00
2023-05-14T19:52:48.306Z,98361.00
2023-05-14T19:55:14.968Z,98361.00
2023-05-14T19:57:41.549Z,98363.00
2023-05-14T20:00:09.101Z,98362.00
2023-05-14T20:02:40.839Z,98362.00
2023-05-14T20:05:11.501Z,98355.00
2023-05-14T20:07:40.160Z,98348.00
2023-05-14T20:10:07.731Z,98355.00
2023-05-14T20:12:34.283Z,98360.00
2023-05-14T20:15:00.807Z,98371.00
2023-05-14T20:17:27.392Z,98351.00
2023-05-14T20:19:54.032Z,98349.00
2023-05-14T20:22:20.561Z,98347.00
2023-05-14T20:24:47.232Z,98354.00
2023-05-14T20:27:13.842Z,98350.00
2023-05-14T20:29:40.479Z,98356.00
2023-05-14T20:32:07.358Z,98356.00
2023-05-14T20:34:33.907Z,98354.00
2023-05-14T20:37:01.242Z,98350.00
2023-05-14T20:39:28.230Z,98347.00
2023-05-14T20:41:54.946Z,98333.00
2023-05-14T20:44:21.449Z,98342.00
2023-05-14T20:46:47.995Z,98332.00
2023-05-14T20:49:14.526Z,98331.00
2023-05-14T20:51:41.049Z,98335.00
2023-05-14T20:54:07.604Z,98333.00
2023-05-14T20:56:36.368Z,98330.00
2023-05-14T20:59:02.937Z,98334.00
2023-05-14T21:01:29.661Z,98333.00
2023-05-14T21:03:56.372Z,98324.00
2023-05-14T21:06:23.142Z,98335.00
2023-05-14T21:08:49.676Z,98323.00
2023-05-14T21:11:16.183Z,98324.00
2023-05-14T21:13:43.876Z,98334.00
2023-05-14T21:16:12.587Z,98325.00
2023-05-14T21:18:39.251Z,98318.00
2023-05-14T21:21:05.765Z,98321.00
2023-05-14T21:23:32.345Z,98318.00
2023-05-14T21:25:59.019Z,98315.00
2023-05-14T21:28:25.635Z,98317.00
2023-05-14T21:30:52.995Z,98315.00
2023-05-14T21:33:19.596Z,98319.00
2023-05-14T21:35:46.239Z,98314.00
2023-05-14T21:38:13.034Z,98314.00
2023-05-14T21:40:39.560Z,98315.00
2023-05-14T21:43:06.336Z,98314.00
2023-05-14T21:45:32.937Z,98325.00
2023-05-14T21:47:59.661Z,98313.00
2023-05-14T21:50:26.954Z,98315.00
2023-05-14T21:52:53.535Z,98321.00
2023-05-14T21:55:20.198Z,98307.00
2023-05-14T21:57:46.794Z,98308.00
2023-05-14T22:00:16.382Z,98316.00
2023-05-14T22:02:42.962Z,98308.00
2023-05-14T22:05:09.655Z,98307.00
2023-05-14T22:07:36.161Z,98312.00
2023-05-14T22:10:02.791Z,98305.00
2023-05-14T22:12:29.251Z,98310.00
2023-05-14T22:14:55.856Z,98316.00
2023-05-14T22:17:22.581Z,98320.00
2023-05-14T22:19:49.275Z,98313.00
2023-05-14T22:22:15.789Z,98311.00
2023-05-14T22:24:42.447Z,98314.00
2023-05-14T22:27:08.967Z,98321.00
2023-05-14T22:29:37.509Z,98307.00
2023-05-14T22:32:07.582Z,98311.00
2023-05-14T22:34:34.172Z,98297.00
2023-05-14T22:37:00.795Z,98301.00
2023-05-14T22:39:27.292Z,98300.00
2023-05-14T22:41:55.262Z,98304.00
2023-05-14T22:44:25.798Z,98297.00
2023-05-14T22:46:53.423Z,98299.00
2023-05-14T22:49:20.122Z,98291.00
2023-05-14T22:51:46.626Z,98291.00
2023-05-14T22:54:13.105Z,98293.00
2023-05-14T22:56:39.770Z,98283.00
2023-05-14T22:59:06.273Z,98288.00
2023-05-14T23:01:32.901Z,98281.00
2023-05-14T23:03:59.565Z,98278.00
2023-05-14T23:06:26.234Z,98283.00
2023-05-14T23:08:52.812Z,98283.00
2023-05-14T23:11:19.372Z,98275.00
2023-05-14T23:13:46.187Z,98273.00
2023-05-14T23:16:12.813Z,98275.00
2023-05-14T23:18:39.497Z,98271.00
2023-05-14T23:21:06.236Z,98263.00
2023-05-14T23:23:32.713Z,98269.00
2023-05-14T23:25:59.677Z,98268.00
2023-05-14T23:28:26.520Z,98274.00
2023-05-14T23:30:53.058Z,98265.00
2023-05-14T23:33:19.571Z,98270.00
2023-05-14T23:35:46.226Z,98262.00
2023-05-14T23:38:12.846Z,98259.00
2023-05-14T23:40:39.357Z,98255.00
2023-05-14T23:43:05.831Z,98256.00
2023-05-14T23:45:32.649Z,98259.00
2023-05-14T23:48:00.880Z,98255.00
2023-05-14T23:50:28.034Z,98248.00
2023-05-14T23:52:55.848Z,98253.00
2023-05-14T23:55:22.812Z,98238.00
2023-05-14T23:57:49.552Z,98248.00
